createdAt,value
2023-07-10T00:02:14.168Z,5.47
2023-07-10T00:04:40.427Z,5.40
2023-07-10T00:07:06.715Z,5.68
2023-07-10T00:09:33.031Z,5.60
2023-07-10T00:11:59.382Z,5.47
2023-07-10T00:14:25.812Z,5.45
2023-07-10T00:16:52.810Z,4.75
2023-07-10T00:19:21.134Z,5.25
2023-07-10T00:21:49.856Z,5.32
2023-07-10T00:24:16.122Z,5.00
2023-07-10T00:26:43.630Z,5.63
2023-07-10T00:29:16.008Z,5.50
2023-07-10T00:31:42.283Z,5.32
2023-07-10T00:34:13.268Z,5.13
2023-07-10T00:36:41.358Z,5.20
2023-07-10T00:39:27.427Z,5.40
2023-07-10T00:41:58.992Z,6.10
2023-07-10T00:44:28.198Z,5.10
2023-07-10T00:46:59.018Z,5.82
2023-07-10T00:49:35.095Z,5.90
2023-07-10T00:52:06.335Z,6.07
2023-07-10T00:54:34.111Z,5.93
2023-07-10T00:57:01.102Z,6.18
2023-07-10T00:59:28.471Z,5.53
2023-07-10T01:02:13.062Z,5.82
2023-07-10T01:04:43.762Z,6.00
2023-07-10T01:07:14.016Z,5.68
2023-07-10T01:09:42.289Z,5.72
2023-07-10T01:12:08.756Z,5.20
2023-07-10T01:14:35.926Z,5.70
2023-07-10T01:17:03.472Z,6.07
2023-07-10T01:19:30.143Z,6.10
2023-07-10T01:24:22.695Z,5.00
2023-07-10T01:26:48.981Z,5.90
2023-07-10T01:29:21.441Z,5.63
2023-07-10T01:31:49.278Z,5.25
2023-07-10T01:34:15.700Z,5.75
2023-07-10T01:36:43.597Z,6.00
2023-07-10T01:39:15.715Z,5.80
2023-07-10T01:41:43.745Z,5.38
2023-07-10T01:44:17.538Z,5.97
2023-07-10T01:46:43.796Z,5.80
2023-07-10T01:49:10.298Z,7.10
2023-07-10T01:51:36.657Z,6.70
2023-07-10T01:54:06.409Z,5.47
2023-07-10T01:56:33.337Z,5.63
2023-07-10T01:58:59.617Z,6.75
2023-07-10T02:01:25.894Z,6.40
2023-07-10T02:03:52.382Z,6.15
2023-07-10T02:08:45.038Z,5.68
2023-07-10T02:11:12.438Z,6.50
2023-07-10T02:13:38.755Z,6.60
2023-07-10T02:16:05.701Z,6.22
2023-07-10T02:18:32.257Z,5.78
2023-07-10T02:20:58.570Z,5.70
2023-07-10T02:25:51.499Z,6.20
2023-07-10T02:28:17.814Z,6.72
2023-07-10T02:30:44.072Z,6.43
2023-07-10T02:33:10.374Z,5.90
2023-07-10T02:35:36.853Z,6.85
2023-07-10T02:38:03.102Z,6.07
2023-07-10T02:40:29.337Z,6.47
2023-07-10T02:42:55.582Z,5.75
2023-07-10T02:45:21.893Z,6.10
2023-07-10T02:47:48.300Z,6.22
2023-07-10T02:50:14.611Z,5.85
2023-07-10T02:52:40.886Z,6.20
2023-07-10T02:55:07.437Z,6.13
2023-07-10T02:57:33.812Z,6.70
2023-07-10T03:00:00.078Z,6.25
2023-07-10T03:02:26.368Z,6.30
2023-07-10T03:04:52.682Z,5.75
2023-07-10T03:07:18.988Z,6.30
2023-07-10T03:09:45.772Z,6.60
2023-07-10T03:12:12.085Z,6.13
2023-07-10T03:14:38.403Z,6.50
2023-07-10T03:17:05.192Z,6.82
2023-07-10T03:21:57.766Z,6.30
2023-07-10T03:24:24.076Z,6.60
2023-07-10T03:26:50.474Z,6.90
2023-07-10T03:29:17.301Z,6.03
2023-07-10T03:31:44.039Z,6.30
2023-07-10T03:36:36.595Z,7.30
2023-07-10T03:39:03.155Z,6.55
2023-07-10T03:41:29.421Z,5.97
2023-07-10T03:43:56.170Z,5.97
2023-07-10T03:48:49.010Z,6.05
2023-07-10T03:51:16.222Z,6.07
2023-07-10T03:53:42.667Z,6.65
2023-07-10T03:56:09.301Z,6.47
2023-07-10T03:58:36.392Z,6.68
2023-07-10T04:01:03.032Z,7.00
2023-07-10T04:03:30.463Z,6.60
2023-07-10T04:05:59.272Z,6.47
2023-07-10T04:08:36.342Z,6.28
2023-07-10T04:11:03.947Z,6.60
2023-07-10T04:13:30.552Z,6.40
2023-07-10T04:15:57.910Z,7.25
2023-07-10T04:18:24.207Z,6.53
2023-07-10T04:20:50.578Z,6.65
2023-07-10T04:23:19.413Z,6.50
2023-07-10T04:25:46.322Z,6.40
2023-07-10T04:28:12.746Z,6.50
2023-07-10T04:30:39.148Z,6.10
2023-07-10T04:33:09.177Z,6.47
2023-07-10T04:35:35.712Z,5.88
2023-07-10T04:38:01.966Z,7.40
2023-07-10T04:40:28.256Z,6.00
2023-07-10T04:42:55.696Z,6.05
2023-07-10T04:45:21.958Z,6.03
2023-07-10T04:47:48.263Z,6.13
2023-07-10T04:50:14.779Z,6.63
2023-07-10T04:52:41.037Z,6.22
2023-07-10T04:55:09.112Z,7.43
2023-07-10T04:57:35.390Z,5.93
2023-07-10T05:00:01.653Z,6.78
2023-07-10T05:02:27.991Z,6.22
2023-07-10T05:04:54.355Z,6.15
2023-07-10T05:07:20.895Z,6.15
2023-07-10T05:09:47.203Z,6.47
2023-07-10T05:12:13.459Z,6.32
2023-07-10T05:14:39.756Z,6.30
2023-07-10T05:17:06.069Z,6.10
2023-07-10T05:19:34.085Z,6.40
2023-07-10T05:22:00.864Z,6.38
2023-07-10T05:26:53.872Z,6.30
2023-07-10T05:31:46.393Z,6.72
2023-07-10T05:34:12.699Z,5.43
2023-07-10T05:36:38.959Z,6.13
2023-07-10T05:39:05.225Z,5.43
2023-07-10T05:41:31.622Z,4.90
2023-07-10T05:43:58.008Z,5.35
2023-07-10T05:46:24.369Z,5.82
2023-07-10T05:48:50.680Z,6.40
2023-07-10T05:51:16.927Z,5.18
2023-07-10T05:53:43.238Z,4.85
2023-07-10T05:56:09.604Z,5.95
2023-07-10T05:58:39.692Z,5.38
2023-07-10T06:01:05.979Z,6.05
2023-07-10T06:03:34.122Z,5.38
2023-07-10T06:06:02.273Z,5.85
2023-07-10T06:08:29.365Z,5.85
2023-07-10T06:10:55.944Z,5.80
2023-07-10T06:15:49.883Z,5.70
2023-07-10T06:18:16.600Z,5.25
2023-07-10T06:20:42.955Z,5.68
2023-07-10T06:23:09.330Z,5.78
2023-07-10T06:25:35.585Z,5.53
2023-07-10T06:28:01.873Z,6.25
2023-07-10T06:30:28.304Z,5.35
2023-07-10T06:32:54.655Z,5.47
2023-07-10T06:35:20.960Z,6.10
2023-07-10T06:37:47.370Z,5.43
2023-07-10T06:40:15.299Z,6.20
2023-07-10T06:42:42.210Z,5.38
2023-07-10T06:45:09.217Z,5.78
2023-07-10T06:47:45.940Z,5.97
2023-07-10T06:50:14.059Z,5.53
2023-07-10T06:52:41.150Z,6.05
2023-07-10T06:55:08.495Z,6.13
2023-07-10T06:57:35.275Z,5.65
2023-07-10T07:00:01.684Z,5.50
2023-07-10T07:02:28.010Z,5.93
2023-07-10T07:04:54.304Z,6.45
2023-07-10T07:07:22.030Z,5.18
2023-07-10T07:09:48.985Z,5.63
2023-07-10T07:12:15.244Z,5.70
2023-07-10T07:14:41.499Z,5.70
2023-07-10T07:17:07.820Z,6.10
2023-07-10T07:19:34.183Z,6.10
2023-07-10T07:22:04.398Z,5.40
2023-07-10T07:24:30.977Z,5.60
2023-07-10T07:29:23.684Z,5.40
2023-07-10T07:31:50.372Z,5.85
2023-07-10T07:36:42.869Z,5.40
2023-07-10T07:39:09.151Z,6.10
2023-07-10T07:41:35.469Z,6.18
2023-07-10T07:44:02.291Z,5.20
2023-07-10T07:46:29.151Z,5.47
2023-07-10T07:48:55.637Z,5.63
2023-07-10T07:53:48.165Z,5.43
2023-07-10T07:56:14.471Z,5.10
2023-07-10T07:58:40.724Z,4.82
2023-07-10T08:01:07.055Z,5.25
2023-07-10T08:03:33.569Z,5.25
2023-07-10T08:06:00.062Z,4.28
2023-07-10T08:08:26.412Z,5.40
2023-07-10T08:10:52.712Z,4.72
2023-07-10T08:13:19.827Z,5.00
2023-07-10T08:15:46.159Z,4.85
2023-07-10T08:18:12.510Z,5.00
2023-07-10T08:23:05.542Z,5.32
2023-07-10T08:25:31.932Z,4.95
2023-07-10T08:27:59.482Z,5.53
2023-07-10T08:30:25.822Z,5.00
2023-07-10T08:32:52.156Z,5.53
2023-07-10T08:35:18.452Z,5.82
2023-07-10T08:37:44.776Z,4.88
2023-07-10T08:42:37.330Z,5.43
2023-07-10T08:45:03.993Z,5.40
2023-07-10T08:47:37.160Z,5.47
2023-07-10T08:50:06.627Z,5.47
2023-07-10T08:52:32.964Z,5.50
2023-07-10T08:54:59.218Z,5.53
2023-07-10T08:57:39.223Z,5.53
2023-07-10T09:00:07.713Z,5.70
2023-07-10T09:02:51.174Z,5.03
2023-07-10T09:05:23.441Z,5.18
2023-07-10T09:07:50.388Z,5.30
2023-07-10T09:10:24.930Z,4.60
2023-07-10T09:12:52.445Z,5.57
2023-07-10T09:15:26.598Z,5.10
2023-07-10T09:17:54.551Z,4.82
2023-07-10T09:20:21.817Z,4.55
2023-07-10T09:23:00.173Z,4.90
2023-07-10T09:25:26.825Z,4.82
2023-07-10T09:27:53.131Z,4.72
2023-07-10T09:30:24.946Z,4.50
2023-07-10T09:32:52.022Z,4.63
2023-07-10T09:35:18.421Z,4.40
2023-07-10T09:40:19.346Z,5.07
2023-07-10T09:42:45.661Z,4.50
2023-07-10T09:47:41.774Z,5.22
2023-07-10T09:50:15.302Z,4.38
2023-07-10T09:52:42.271Z,4.25
2023-07-10T09:55:08.566Z,4.40
2023-07-10T10:00:01.193Z,4.47
2023-07-10T10:02:33.257Z,4.10
2023-07-10T10:05:14.285Z,4.05
2023-07-10T10:07:44.360Z,4.30
2023-07-10T10:10:13.778Z,4.47
2023-07-10T10:12:40.119Z,3.90
2023-07-10T10:15:12.726Z,4.00
2023-07-10T10:17:42.142Z,4.13
2023-07-10T10:20:18.324Z,4.03
2023-07-10T10:22:47.042Z,4.47
2023-07-10T10:25:17.546Z,4.53
2023-07-10T10:27:52.161Z,3.90
2023-07-10T10:30:18.511Z,4.30
2023-07-10T10:32:55.239Z,3.95
2023-07-10T10:35:30.178Z,3.30
2023-07-10T10:37:59.373Z,3.97
2023-07-10T10:40:51.649Z,3.90
2023-07-10T10:43:40.879Z,3.58
2023-07-10T10:46:22.661Z,4.05
2023-07-10T10:48:51.770Z,4.10
2023-07-10T10:51:27.186Z,3.90
2023-07-10T10:53:59.152Z,3.70
2023-07-10T10:56:41.835Z,3.60
2023-07-10T10:59:18.023Z,3.45
2023-07-10T11:02:02.858Z,3.67
2023-07-10T11:04:35.223Z,3.58
2023-07-10T11:07:04.368Z,3.60
2023-07-10T11:09:33.770Z,3.33
2023-07-10T11:12:01.091Z,3.70
2023-07-10T11:14:28.518Z,3.70
2023-07-10T11:16:55.367Z,3.45
2023-07-10T11:19:25.299Z,3.33
2023-07-10T11:21:52.412Z,3.67
2023-07-10T11:24:24.665Z,3.28
2023-07-10T11:26:52.810Z,3.13
2023-07-10T11:29:28.216Z,3.17
2023-07-10T11:31:56.682Z,3.07
2023-07-10T11:34:22.933Z,3.10
2023-07-10T11:36:49.294Z,3.00
2023-07-10T11:39:31.607Z,3.25
2023-07-10T11:42:04.403Z,3.58
2023-07-10T11:44:32.193Z,2.92
2023-07-10T11:46:58.624Z,3.50
2023-07-10T11:49:25.899Z,3.83
2023-07-10T11:52:10.356Z,3.38
2023-07-10T11:54:41.047Z,3.00
2023-07-10T11:57:10.188Z,10.65
2023-07-10T11:59:37.254Z,5.32
2023-07-10T12:02:17.632Z,4.47
2023-07-10T12:04:43.936Z,3.25
2023-07-10T12:07:11.723Z,3.70
2023-07-10T12:09:38.020Z,3.50
2023-07-10T12:12:04.427Z,3.28
2023-07-10T12:14:33.713Z,3.25
2023-07-10T12:19:34.760Z,2.88
2023-07-10T12:22:01.926Z,3.08
2023-07-10T12:24:28.267Z,2.97
2023-07-10T12:27:48.534Z,4.07
2023-07-10T12:29:51.464Z,3.00
2023-07-10T12:32:17.848Z,3.47
2023-07-10T12:34:44.164Z,3.05
2023-07-10T12:37:11.190Z,2.95
2023-07-10T12:39:38.144Z,3.22
2023-07-10T12:42:23.050Z,3.53
2023-07-10T12:44:49.325Z,3.00
2023-07-10T12:47:15.790Z,2.70
2023-07-10T12:49:49.538Z,2.78
2023-07-10T12:52:15.833Z,2.90
2023-07-10T12:54:43.561Z,3.47
2023-07-10T12:57:13.693Z,2.97
2023-07-10T12:59:40.045Z,2.88
2023-07-10T13:02:19.685Z,2.58
2023-07-10T13:04:47.639Z,2.60
2023-07-10T13:07:30.725Z,2.67
2023-07-10T13:09:59.240Z,2.80
2023-07-10T13:12:29.316Z,2.97
2023-07-10T13:14:56.350Z,2.70
2023-07-10T13:17:23.580Z,2.35
2023-07-10T13:20:06.762Z,2.50
2023-07-10T13:22:35.187Z,2.53
2023-07-10T13:25:01.549Z,2.20
2023-07-10T13:27:28.218Z,2.15
2023-07-10T13:29:54.482Z,2.60
2023-07-10T13:32:20.730Z,2.85
2023-07-10T13:34:46.988Z,2.30
2023-07-10T13:37:19.788Z,2.38
2023-07-10T13:39:46.349Z,2.10
2023-07-10T13:42:13.499Z,2.05
2023-07-10T13:44:43.294Z,2.45
2023-07-10T13:47:17.180Z,2.58
2023-07-10T13:49:44.164Z,2.10
2023-07-10T13:52:21.441Z,2.30
2023-07-10T13:54:47.783Z,2.03
2023-07-10T13:57:15.732Z,2.40
2023-07-10T13:59:42.153Z,2.00
2023-07-10T14:02:22.046Z,2.00
2023-07-10T14:04:49.096Z,2.40
2023-07-10T14:07:15.826Z,1.90
2023-07-10T14:09:42.078Z,1.83
2023-07-10T14:12:14.883Z,2.42
2023-07-10T14:14:41.232Z,2.40
2023-07-10T14:17:16.610Z,2.42
2023-07-10T14:19:42.890Z,2.20
2023-07-10T14:22:13.041Z,2.40
2023-07-10T14:24:39.521Z,2.15
2023-07-10T14:27:24.684Z,2.20
2023-07-10T14:29:51.657Z,1.98
2023-07-10T14:32:19.592Z,2.30
2023-07-10T14:34:46.022Z,2.65
2023-07-10T14:37:13.719Z,2.35
2023-07-10T14:39:40.296Z,2.50
2023-07-10T14:42:13.958Z,2.22
2023-07-10T14:44:40.245Z,1.98
2023-07-10T14:47:08.481Z,2.25
2023-07-10T14:49:34.922Z,2.10
2023-07-10T14:52:01.212Z,2.35
2023-07-10T14:54:28.260Z,2.05
2023-07-10T14:56:56.863Z,2.42
2023-07-10T14:59:23.158Z,2.25
2023-07-10T15:01:49.424Z,2.13
2023-07-10T15:04:15.733Z,2.10
2023-07-10T15:06:43.360Z,2.28
2023-07-10T15:09:13.364Z,2.10
2023-07-10T15:11:39.893Z,2.20
2023-07-10T15:14:16.017Z,2.30
2023-07-10T15:19:13.356Z,2.92
2023-07-10T15:21:39.996Z,2.30
2023-07-10T15:24:20.292Z,2.45
2023-07-10T15:26:46.547Z,2.25
2023-07-10T15:29:12.795Z,2.60
2023-07-10T15:31:39.163Z,2.25
2023-07-10T15:34:13.076Z,2.47
2023-07-10T15:36:39.349Z,2.92
2023-07-10T15:39:15.729Z,2.60
2023-07-10T15:41:42.459Z,2.38
2023-07-10T15:44:12.366Z,2.50
2023-07-10T15:46:40.868Z,2.65
2023-07-10T15:49:26.073Z,2.55
2023-07-10T15:51:53.527Z,2.28
2023-07-10T15:54:19.936Z,2.03
2023-07-10T15:56:46.687Z,2.58
2023-07-10T15:59:14.020Z,1.92
2023-07-10T16:01:41.500Z,2.78
2023-07-10T16:04:17.059Z,2.70
2023-07-10T16:06:44.976Z,2.45
2023-07-10T16:09:12.394Z,3.10
2023-07-10T16:11:39.175Z,2.30
2023-07-10T16:14:11.420Z,2.63
2023-07-10T16:16:37.768Z,2.70
2023-07-10T16:19:04.124Z,2.60
2023-07-10T16:21:30.796Z,2.58
2023-07-10T16:23:57.158Z,2.90
2023-07-10T16:26:24.976Z,2.45
2023-07-10T16:28:51.255Z,2.42
2023-07-10T16:31:18.612Z,2.80
2023-07-10T16:33:45.254Z,2.60
2023-07-10T16:36:18.296Z,2.72
2023-07-10T16:38:44.842Z,2.55
2023-07-10T16:41:12.967Z,2.47
2023-07-10T16:43:39.392Z,3.33
2023-07-10T16:46:05.677Z,2.60
2023-07-10T16:48:32.038Z,2.88
2023-07-10T16:51:03.321Z,2.88
2023-07-10T16:53:31.462Z,2.40
2023-07-10T16:55:59.059Z,2.50
2023-07-10T16:58:29.544Z,2.63
2023-07-10T17:00:56.311Z,2.63
2023-07-10T17:03:24.293Z,2.83
2023-07-10T17:05:51.223Z,2.60
2023-07-10T17:08:19.612Z,3.03
2023-07-10T17:10:46.481Z,2.50
2023-07-10T17:13:17.582Z,2.47
2023-07-10T17:15:47.756Z,2.63
2023-07-10T17:18:17.302Z,2.80
2023-07-10T17:20:47.433Z,3.05
2023-07-10T17:23:14.981Z,2.50
2023-07-10T17:25:41.304Z,2.75
2023-07-10T17:28:24.321Z,2.50
2023-07-10T17:30:51.289Z,2.92
2023-07-10T17:33:27.879Z,3.03
2023-07-10T17:35:54.127Z,2.70
2023-07-10T17:40:48.439Z,2.55
2023-07-10T17:43:14.716Z,2.83
2023-07-10T17:48:20.498Z,2.65
2023-07-10T17:50:47.406Z,2.70
2023-07-10T17:53:14.839Z,2.78
2023-07-10T17:55:48.066Z,3.10
2023-07-10T17:58:15.289Z,2.67
2023-07-10T18:00:42.816Z,2.80
2023-07-10T18:03:12.651Z,2.85
2023-07-10T18:05:38.945Z,2.80
2023-07-10T18:08:18.987Z,3.13
2023-07-10T18:10:46.484Z,2.83
2023-07-10T18:13:34.632Z,3.13
2023-07-10T18:16:01.452Z,2.65
2023-07-10T18:18:27.745Z,2.70
2023-07-10T18:20:54.244Z,2.70
2023-07-10T18:23:21.922Z,2.60
2023-07-10T18:25:48.968Z,3.20
2023-07-10T18:28:17.118Z,2.60
2023-07-10T18:30:44.315Z,3.15
2023-07-10T18:33:14.396Z,3.25
2023-07-10T18:35:40.988Z,3.35
2023-07-10T18:38:18.745Z,3.88
2023-07-10T18:40:53.153Z,3.78
2023-07-10T18:43:20.572Z,5.15
2023-07-10T18:45:47.392Z,5.35
2023-07-10T18:48:15.202Z,4.75
2023-07-10T18:50:42.055Z,3.92
2023-07-10T18:53:11.942Z,3.95
2023-07-10T18:55:38.179Z,4.13
2023-07-10T18:58:05.856Z,3.85
2023-07-10T19:00:32.183Z,3.25
2023-07-10T19:02:58.545Z,3.90
2023-07-10T19:07:51.216Z,3.00
2023-07-10T19:10:19.170Z,3.40
2023-07-10T19:12:45.764Z,3.45
2023-07-10T19:15:12.070Z,3.30
2023-07-10T19:17:38.566Z,3.67
2023-07-10T19:22:32.035Z,3.60
2023-07-10T19:25:01.553Z,4.07
2023-07-10T19:27:27.839Z,3.13
2023-07-10T19:29:54.239Z,3.33
2023-07-10T19:34:46.806Z,3.15
2023-07-10T19:37:13.100Z,3.38
2023-07-10T19:39:39.440Z,3.78
2023-07-10T19:42:05.996Z,4.07
2023-07-10T19:46:58.562Z,3.10
2023-07-10T19:49:26.609Z,3.22
2023-07-10T19:51:53.190Z,3.40
2023-07-10T19:56:45.914Z,3.78
2023-07-10T19:59:14.207Z,3.45
2023-07-10T20:01:40.574Z,3.30
2023-07-10T20:04:10.356Z,3.53
2023-07-10T20:06:37.080Z,3.35
2023-07-10T20:09:12.230Z,3.47
2023-07-10T20:11:38.534Z,3.22
2023-07-10T20:14:04.839Z,3.00
2023-07-10T20:16:31.208Z,3.10
2023-07-10T20:18:57.498Z,3.30
2023-07-10T20:21:23.838Z,3.50
2023-07-10T20:23:51.358Z,3.40
2023-07-10T20:26:19.793Z,3.30
2023-07-10T20:28:46.552Z,3.10
2023-07-10T20:31:14.182Z,3.22
2023-07-10T20:33:40.850Z,3.40
2023-07-10T20:36:13.692Z,3.20
2023-07-10T20:38:40.730Z,3.80
2023-07-10T20:41:12.214Z,3.33
2023-07-10T20:43:38.783Z,2.88
2023-07-10T20:48:33.511Z,3.55
2023-07-10T20:51:00.312Z,3.65
2023-07-10T20:53:27.275Z,3.60
2023-07-10T20:55:56.773Z,3.03
2023-07-10T20:58:23.991Z,3.42
2023-07-10T21:00:51.105Z,3.38
2023-07-10T21:03:19.209Z,3.80
2023-07-10T21:05:46.464Z,3.58
2023-07-10T21:08:23.156Z,3.63
2023-07-10T21:10:50.478Z,3.38
2023-07-10T21:13:17.587Z,3.10
2023-07-10T21:15:43.958Z,3.40
2023-07-10T21:18:22.822Z,3.40
2023-07-10T21:20:50.036Z,3.05
2023-07-10T21:23:27.595Z,3.30
2023-07-10T21:25:54.877Z,3.25
2023-07-10T21:28:22.590Z,3.50
2023-07-10T21:30:48.982Z,3.25
2023-07-10T21:33:22.262Z,3.67
2023-07-10T21:35:50.143Z,3.38
2023-07-10T21:38:16.583Z,3.90
2023-07-10T21:40:44.364Z,3.30
2023-07-10T21:43:19.069Z,4.00
2023-07-10T21:45:45.755Z,3.28
2023-07-10T21:48:22.469Z,3.15
2023-07-10T21:50:49.904Z,3.20
2023-07-10T21:53:18.550Z,3.00
2023-07-10T21:55:45.770Z,3.70
2023-07-10T21:58:20.918Z,3.22
2023-07-10T22:00:47.183Z,3.60
2023-07-10T22:03:25.938Z,3.50
2023-07-10T22:05:53.390Z,3.78
2023-07-10T22:08:19.690Z,4.43
2023-07-10T22:10:46.639Z,4.55
2023-07-10T22:13:14.350Z,3.40
2023-07-10T22:15:41.253Z,3.60
2023-07-10T22:18:14.872Z,3.60
2023-07-10T22:20:41.825Z,2.95
2023-07-10T22:23:08.706Z,4.03
2023-07-10T22:25:34.994Z,4.25
2023-07-10T22:28:01.253Z,3.60
2023-07-10T22:30:27.551Z,3.60
2023-07-10T22:32:53.863Z,3.88
2023-07-10T22:35:20.291Z,3.63
2023-07-10T22:37:46.690Z,3.65
2023-07-10T22:40:13.246Z,4.20
2023-07-10T22:42:39.478Z,3.47
2023-07-10T22:45:06.207Z,3.38
2023-07-10T22:49:58.805Z,4.03
2023-07-10T22:52:25.115Z,3.30
2023-07-10T22:54:51.424Z,3.50
2023-07-10T22:57:17.668Z,3.70
2023-07-10T22:59:44.519Z,4.13
2023-07-10T23:02:10.884Z,3.90
2023-07-10T23:04:37.296Z,3.55
2023-07-10T23:07:04.687Z,4.20
2023-07-10T23:09:31.122Z,3.55
2023-07-10T23:11:57.422Z,3.88
2023-07-10T23:14:23.697Z,3.92
2023-07-10T23:16:54.196Z,3.78
2023-07-10T23:19:20.651Z,3.65
2023-07-10T23:21:46.901Z,3.95
2023-07-10T23:24:13.230Z,3.63
2023-07-10T23:26:39.493Z,3.80
2023-07-10T23:29:05.786Z,4.00
2023-07-10T23:31:32.842Z,4.10
2023-07-10T23:33:59.454Z,3.97
2023-07-10T23:36:26.913Z,4.15
2023-07-10T23:38:53.644Z,3.67
2023-07-10T23:41:20.275Z,3.50
2023-07-10T23:43:46.642Z,3.40
2023-07-10T23:46:13.009Z,4.15
2023-07-10T23:48:39.820Z,4.20
2023-07-10T23:53:32.590Z,3.83
2023-07-10T23:55:59.257Z,4.20
2023-07-10T23:58:25.593Z,4.65
